sensor_id;sensor_type;location;lat;lon;timestamp;P1;durP1;ratioP1;P2;durP2;ratioP2
5981;SDS011;3018;48.730;9.336;2024-01-15T00:00:33;60.13;;;26.88;;
5981;SDS011;3018;48.730;9.336;2024-01-15T00:03:00;59.25;;;24.75;;
5981;SDS011;3018;48.730;9.336;2024-01-15T00:05:26;57.17;;;25.77;;
5981;SDS011;3018;48.730;9.336;2024-01-15T00:07:52;62.08;;;27.30;;
5981;SDS011;3018;48.730;9.336;2024-01-15T00:10:19;58.05;;;26.40;;
5981;SDS011;3018;48.730;9.336;2024-01-15T00:12:46;57.53;;;26.58;;
5981;SDS011;3018;48.730;9.336;2024-01-15T00:15:13;56.25;;;26.83;;
5981;SDS011;3018;48.730;9.336;2024-01-15T00:17:39;64.25;;;26.25;;
5981;SDS011;3018;48.730;9.336;2024-01-15T00:20:06;59.45;;;25.88;;
5981;SDS011;3018;48.730;9.336;2024-01-15T00:22:32;59.50;;;26.33;;
5981;SDS011;3018;48.730;9.336;2024-01-15T00:25:00;56.03;;;25.70;;
5981;SDS011;3018;48.730;9.336;2024-01-15T00:27:26;61.92;;;27.88;;
5981;SDS011;3018;48.730;9.336;2024-01-15T00:29:54;60.33;;;26.23;;
5981;SDS011;3018;48.730;9.336;2024-01-15T00:32:20;64.75;;;26.27;;
5981;SDS011;3018;48.730;9.336;2024-01-15T00:34:47;61.53;;;26.50;;
5981;SDS011;3018;48.730;9.336;2024-01-15T00:37:13;57.92;;;26.20;;
5981;SDS011;3018;48.730;9.336;2024-01-15T00:39:39;57.15;;;24.85;;
5981;SDS011;3018;48.730;9.336;2024-01-15T00:42:05;56.78;;;25.67;;
5981;SDS011;3018;48.730;9.336;2024-01-15T00:44:32;55.20;;;25.70;;
5981;SDS011;3018;48.730;9.336;2024-01-15T00:46:59;55.45;;;24.17;;
5981;SDS011;3018;48.730;9.336;2024-01-15T00:49:26;59.58;;;27.08;;
5981;SDS011;3018;48.730;9.336;2024-01-15T00:51:53;57.03;;;26.35;;
5981;SDS011;3018;48.730;9.336;2024-01-15T00:54:19;55.67;;;25.83;;
5981;SDS011;3018;48.730;9.336;2024-01-15T00:56:45;57.15;;;24.88;;
5981;SDS011;3018;48.730;9.336;2024-01-15T00:59:11;54.13;;;25.48;;
5981;SDS011;3018;48.730;9.336;2024-01-15T01:01:40;53.75;;;24.45;;
5981;SDS011;3018;48.730;9.336;2024-01-15T01:04:09;55.38;;;26.23;;
5981;SDS011;3018;48.730;9.336;2024-01-15T01:06:35;57.60;;;25.95;;
5981;SDS011;3018;48.730;9.336;2024-01-15T01:09:01;62.58;;;26.80;;
5981;SDS011;3018;48.730;9.336;2024-01-15T01:11:28;53.03;;;24.55;;
5981;SDS011;3018;48.730;9.336;2024-01-15T01:13:54;56.70;;;25.08;;
5981;SDS011;3018;48.730;9.336;2024-01-15T01:16:21;50.38;;;23.08;;
5981;SDS011;3018;48.730;9.336;2024-01-15T01:18:48;48.72;;;23.25;;
5981;SDS011;3018;48.730;9.336;2024-01-15T01:21:15;43.72;;;21.92;;
5981;SDS011;3018;48.730;9.336;2024-01-15T01:23:41;51.88;;;23.75;;
5981;SDS011;3018;48.730;9.336;2024-01-15T01:26:08;48.72;;;21.95;;
5981;SDS011;3018;48.730;9.336;2024-01-15T01:28:34;50.58;;;21.48;;
5981;SDS011;3018;48.730;9.336;2024-01-15T01:31:00;43.40;;;20.98;;
5981;SDS011;3018;48.730;9.336;2024-01-15T01:33:27;54.17;;;23.55;;
5981;SDS011;3018;48.730;9.336;2024-01-15T01:35:53;44.90;;;21.80;;
5981;SDS011;3018;48.730;9.336;2024-01-15T01:38:20;45.13;;;20.38;;
5981;SDS011;3018;48.730;9.336;2024-01-15T01:40:47;41.65;;;20.00;;
5981;SDS011;3018;48.730;9.336;2024-01-15T01:43:13;42.63;;;20.20;;
5981;SDS011;3018;48.730;9.336;2024-01-15T01:45:39;40.47;;;19.77;;
5981;SDS011;3018;48.730;9.336;2024-01-15T01:48:06;35.75;;;17.98;;
5981;SDS011;3018;48.730;9.336;2024-01-15T01:50:32;39.47;;;17.17;;
5981;SDS011;3018;48.730;9.336;2024-01-15T01:52:58;30.60;;;15.52;;
5981;SDS011;3018;48.730;9.336;2024-01-15T01:55:27;32.65;;;15.70;;
5981;SDS011;3018;48.730;9.336;2024-01-15T01:57:55;29.55;;;14.25;;
5981;SDS011;3018;48.730;9.336;2024-01-15T02:00:22;31.27;;;15.02;;
5981;SDS011;3018;48.730;9.336;2024-01-15T02:02:48;28.67;;;13.18;;
5981;SDS011;3018;48.730;9.336;2024-01-15T02:05:15;26.10;;;13.02;;
5981;SDS011;3018;48.730;9.336;2024-01-15T02:07:44;28.92;;;14.50;;
5981;SDS011;3018;48.730;9.336;2024-01-15T02:10:10;26.98;;;13.32;;
5981;SDS011;3018;48.730;9.336;2024-01-15T02:12:38;25.08;;;12.55;;
5981;SDS011;3018;48.730;9.336;2024-01-15T02:15:04;25.75;;;13.02;;
5981;SDS011;3018;48.730;9.336;2024-01-15T02:17:30;27.23;;;12.88;;
5981;SDS011;3018;48.730;9.336;2024-01-15T02:19:57;22.75;;;12.45;;
5981;SDS011;3018;48.730;9.336;2024-01-15T02:22:23;23.90;;;12.95;;
5981;SDS011;3018;48.730;9.336;2024-01-15T02:24:51;22.80;;;11.77;;
5981;SDS011;3018;48.730;9.336;2024-01-15T02:27:17;22.20;;;11.23;;
5981;SDS011;3018;48.730;9.336;2024-01-15T02:29:44;23.25;;;11.40;;
5981;SDS011;3018;48.730;9.336;2024-01-15T02:32:10;21.10;;;10.32;;
5981;SDS011;3018;48.730;9.336;2024-01-15T02:34:37;20.27;;;10.93;;
5981;SDS011;3018;48.730;9.336;2024-01-15T02:37:03;20.75;;;11.63;;
5981;SDS011;3018;48.730;9.336;2024-01-15T02:39:29;20.38;;;11.10;;
5981;SDS011;3018;48.730;9.336;2024-01-15T02:41:57;19.15;;;10.30;;
5981;SDS011;3018;48.730;9.336;2024-01-15T02:44:23;20.25;;;10.75;;
5981;SDS011;3018;48.730;9.336;2024-01-15T02:46:49;17.02;;;10.50;;
5981;SDS011;3018;48.730;9.336;2024-01-15T02:49:16;18.90;;;10.48;;
5981;SDS011;3018;48.730;9.336;2024-01-15T02:51:42;20.88;;;12.00;;
5981;SDS011;3018;48.730;9.336;2024-01-15T02:54:08;25.55;;;12.73;;
5981;SDS011;3018;48.730;9.336;2024-01-15T02:56:34;23.20;;;11.88;;
5981;SDS011;3018;48.730;9.336;2024-01-15T02:59:02;26.33;;;12.55;;
5981;SDS011;3018;48.730;9.336;2024-01-15T03:01:29;24.23;;;12.00;;
5981;SDS011;3018;48.730;9.336;2024-01-15T03:03:55;21.83;;;10.50;;
5981;SDS011;3018;48.730;9.336;2024-01-15T03:06:22;20.25;;;11.00;;
5981;SDS011;3018;48.730;9.336;2024-01-15T03:08:48;17.10;;;9.80;;
5981;SDS011;3018;48.730;9.336;2024-01-15T03:11:14;21.42;;;10.02;;
5981;SDS011;3018;48.730;9.336;2024-01-15T03:13:41;20.02;;;10.07;;
5981;SDS011;3018;48.730;9.336;2024-01-15T03:16:09;19.08;;;9.50;;
5981;SDS011;3018;48.730;9.336;2024-01-15T03:18:36;17.00;;;9.18;;
5981;SDS011;3018;48.730;9.336;2024-01-15T03:21:02;18.63;;;10.18;;
5981;SDS011;3018;48.730;9.336;2024-01-15T03:23:28;15.82;;;8.77;;
5981;SDS011;3018;48.730;9.336;2024-01-15T03:25:55;18.27;;;10.10;;
5981;SDS011;3018;48.730;9.336;2024-01-15T03:28:21;19.25;;;9.93;;
5981;SDS011;3018;48.730;9.336;2024-01-15T03:30:47;15.25;;;8.95;;
5981;SDS011;3018;48.730;9.336;2024-01-15T03:33:15;17.20;;;9.20;;
5981;SDS011;3018;48.730;9.336;2024-01-15T03:35:41;17.02;;;9.38;;
5981;SDS011;3018;48.730;9.336;2024-01-15T03:38:07;18.08;;;10.13;;
5981;SDS011;3018;48.730;9.336;2024-01-15T03:40:33;16.85;;;9.10;;
5981;SDS011;3018;48.730;9.336;2024-01-15T03:43:00;16.10;;;8.80;;
5981;SDS011;3018;48.730;9.336;2024-01-15T03:45:26;17.92;;;8.48;;
5981;SDS011;3018;48.730;9.336;2024-01-15T03:47:52;17.08;;;9.07;;
5981;SDS011;3018;48.730;9.336;2024-01-15T03:50:20;18.50;;;9.82;;
5981;SDS011;3018;48.730;9.336;2024-01-15T03:52:46;17.55;;;9.05;;
5981;SDS011;3018;48.730;9.336;2024-01-15T03:55:12;19.25;;;9.85;;
5981;SDS011;3018;48.730;9.336;2024-01-15T03:57:39;17.38;;;9.70;;
5981;SDS011;3018;48.730;9.336;2024-01-15T04:00:06;16.63;;;9.68;;
5981;SDS011;3018;48.730;9.336;2024-01-15T04:02:33;21.98;;;10.32;;
5981;SDS011;3018;48.730;9.336;2024-01-15T04:04:59;15.80;;;9.15;;
5981;SDS011;3018;48.730;9.336;2024-01-15T04:07:27;16.85;;;9.38;;
5981;SDS011;3018;48.730;9.336;2024-01-15T04:09:53;16.58;;;9.60;;
5981;SDS011;3018;48.730;9.336;2024-01-15T04:12:19;17.67;;;9.30;;
5981;SDS011;3018;48.730;9.336;2024-01-15T04:14:45;18.50;;;9.77;;
5981;SDS011;3018;48.730;9.336;2024-01-15T04:17:12;17.92;;;9.65;;
5981;SDS011;3018;48.730;9.336;2024-01-15T04:19:38;17.20;;;9.32;;
5981;SDS011;3018;48.730;9.336;2024-01-15T04:22:04;18.77;;;9.75;;
5981;SDS011;3018;48.730;9.336;2024-01-15T04:24:32;20.30;;;9.85;;
5981;SDS011;3018;48.730;9.336;2024-01-15T04:26:58;16.48;;;9.15;;
5981;SDS011;3018;48.730;9.336;2024-01-15T04:29:25;17.77;;;9.52;;
5981;SDS011;3018;48.730;9.336;2024-01-15T04:31:51;15.73;;;9.15;;
5981;SDS011;3018;48.730;9.336;2024-01-15T04:34:17;17.40;;;9.43;;
5981;SDS011;3018;48.730;9.336;2024-01-15T04:36:44;19.40;;;9.27;;
5981;SDS011;3018;48.730;9.336;2024-01-15T04:39:10;23.13;;;10.50;;
5981;SDS011;3018;48.730;9.336;2024-01-15T04:41:38;19.88;;;9.63;;
5981;SDS011;3018;48.730;9.336;2024-01-15T04:44:04;17.45;;;9.80;;
5981;SDS011;3018;48.730;9.336;2024-01-15T04:46:30;23.67;;;11.05;;
5981;SDS011;3018;48.730;9.336;2024-01-15T04:48:56;17.70;;;9.43;;
5981;SDS011;3018;48.730;9.336;2024-01-15T04:51:23;18.40;;;9.45;;
5981;SDS011;3018;48.730;9.336;2024-01-15T04:53:49;19.80;;;10.13;;
5981;SDS011;3018;48.730;9.336;2024-01-15T04:56:15;20.23;;;10.00;;
5981;SDS011;3018;48.730;9.336;2024-01-15T04:58:43;19.02;;;9.80;;
5981;SDS011;3018;48.730;9.336;2024-01-15T05:01:09;21.25;;;9.43;;
5981;SDS011;3018;48.730;9.336;2024-01-15T05:03:36;16.92;;;9.02;;
5981;SDS011;3018;48.730;9.336;2024-01-15T05:06:02;16.13;;;8.98;;
5981;SDS011;3018;48.730;9.336;2024-01-15T05:08:28;17.15;;;8.88;;
5981;SDS011;3018;48.730;9.336;2024-01-15T05:10:55;20.33;;;9.00;;
5981;SDS011;3018;48.730;9.336;2024-01-15T05:13:21;17.88;;;9.00;;
5981;SDS011;3018;48.730;9.336;2024-01-15T05:15:48;17.73;;;9.25;;
5981;SDS011;3018;48.730;9.336;2024-01-15T05:18:15;20.33;;;9.95;;
5981;SDS011;3018;48.730;9.336;2024-01-15T05:20:41;19.20;;;9.57;;
5981;SDS011;3018;48.730;9.336;2024-01-15T05:23:08;16.60;;;9.00;;
5981;SDS011;3018;48.730;9.336;2024-01-15T05:25:34;18.65;;;9.55;;
5981;SDS011;3018;48.730;9.336;2024-01-15T05:28:00;17.50;;;9.43;;
5981;SDS011;3018;48.730;9.336;2024-01-15T05:30:27;18.75;;;9.25;;
5981;SDS011;3018;48.730;9.336;2024-01-15T05:32:54;17.05;;;9.80;;
5981;SDS011;3018;48.730;9.336;2024-01-15T05:35:22;19.08;;;9.68;;
5981;SDS011;3018;48.730;9.336;2024-01-15T05:37:48;20.10;;;9.07;;
5981;SDS011;3018;48.730;9.336;2024-01-15T05:40:15;17.83;;;9.90;;
5981;SDS011;3018;48.730;9.336;2024-01-15T05:42:41;21.13;;;10.60;;
5981;SDS011;3018;48.730;9.336;2024-01-15T05:45:07;19.92;;;10.23;;
5981;SDS011;3018;48.730;9.336;2024-01-15T05:47:34;20.92;;;10.70;;
5981;SDS011;3018;48.730;9.336;2024-01-15T05:50:01;17.38;;;9.18;;
5981;SDS011;3018;48.730;9.336;2024-01-15T05:52:28;20.95;;;10.25;;
5981;SDS011;3018;48.730;9.336;2024-01-15T05:54:54;22.40;;;10.15;;
5981;SDS011;3018;48.730;9.336;2024-01-15T05:57:20;19.10;;;9.88;;
5981;SDS011;3018;48.730;9.336;2024-01-15T05:59:47;20.30;;;10.30;;
5981;SDS011;3018;48.730;9.336;2024-01-15T06:02:13;19.13;;;10.50;;
5981;SDS011;3018;48.730;9.336;2024-01-15T06:04:39;18.48;;;10.25;;
5981;SDS011;3018;48.730;9.336;2024-01-15T06:07:07;19.50;;;10.02;;
5981;SDS011;3018;48.730;9.336;2024-01-15T06:09:33;19.23;;;9.85;;
5981;SDS011;3018;48.730;9.336;2024-01-15T06:11:59;18.15;;;9.40;;
5981;SDS011;3018;48.730;9.336;2024-01-15T06:14:25;15.73;;;9.10;;
5981;SDS011;3018;48.730;9.336;2024-01-15T06:16:52;19.73;;;9.88;;
5981;SDS011;3018;48.730;9.336;2024-01-15T06:19:18;15.85;;;9.38;;
5981;SDS011;3018;48.730;9.336;2024-01-15T06:21:44;18.83;;;9.95;;
5981;SDS011;3018;48.730;9.336;2024-01-15T06:24:12;17.65;;;9.32;;
5981;SDS011;3018;48.730;9.336;2024-01-15T06:26:38;16.10;;;9.73;;
5981;SDS011;3018;48.730;9.336;2024-01-15T06:29:04;19.55;;;10.48;;
5981;SDS011;3018;48.730;9.336;2024-01-15T06:31:31;13.75;;;8.60;;
5981;SDS011;3018;48.730;9.336;2024-01-15T06:33:57;18.27;;;9.48;;
5981;SDS011;3018;48.730;9.336;2024-01-15T06:36:24;18.13;;;9.90;;
5981;SDS011;3018;48.730;9.336;2024-01-15T06:38:50;22.02;;;10.75;;
5981;SDS011;3018;48.730;9.336;2024-01-15T06:41:17;18.27;;;9.65;;
5981;SDS011;3018;48.730;9.336;2024-01-15T06:43:44;20.58;;;11.15;;
5981;SDS011;3018;48.730;9.336;2024-01-15T06:46:10;20.52;;;9.32;;
5981;SDS011;3018;48.730;9.336;2024-01-15T06:48:36;19.58;;;9.90;;
5981;SDS011;3018;48.730;9.336;2024-01-15T06:51:02;17.60;;;10.32;;
5981;SDS011;3018;48.730;9.336;2024-01-15T06:53:29;14.95;;;8.93;;
5981;SDS011;3018;48.730;9.336;2024-01-15T06:55:55;17.67;;;9.95;;
5981;SDS011;3018;48.730;9.336;2024-01-15T06:58:23;18.67;;;9.95;;
5981;SDS011;3018;48.730;9.336;2024-01-15T07:00:49;19.38;;;10.30;;
5981;SDS011;3018;48.730;9.336;2024-01-15T07:03:15;16.98;;;9.05;;
5981;SDS011;3018;48.730;9.336;2024-01-15T07:05:41;18.33;;;9.73;;
5981;SDS011;3018;48.730;9.336;2024-01-15T07:08:08;18.25;;;9.43;;
5981;SDS011;3018;48.730;9.336;2024-01-15T07:10:34;17.52;;;9.43;;
5981;SDS011;3018;48.730;9.336;2024-01-15T07:13:00;16.40;;;9.40;;
5981;SDS011;3018;48.730;9.336;2024-01-15T07:15:28;17.83;;;9.07;;
5981;SDS011;3018;48.730;9.336;2024-01-15T07:17:54;14.95;;;9.27;;
5981;SDS011;3018;48.730;9.336;2024-01-15T07:20:21;17.20;;;8.70;;
5981;SDS011;3018;48.730;9.336;2024-01-15T07:22:47;14.90;;;8.45;;
5981;SDS011;3018;48.730;9.336;2024-01-15T07:25:13;13.10;;;8.40;;
5981;SDS011;3018;48.730;9.336;2024-01-15T07:27:40;18.88;;;8.55;;
5981;SDS011;3018;48.730;9.336;2024-01-15T07:30:09;11.30;;;7.60;;
5981;SDS011;3018;48.730;9.336;2024-01-15T07:32:37;13.45;;;6.57;;
5981;SDS011;3018;48.730;9.336;2024-01-15T07:35:03;11.75;;;6.60;;
5981;SDS011;3018;48.730;9.336;2024-01-15T07:37:30;15.70;;;7.63;;
5981;SDS011;3018;48.730;9.336;2024-01-15T07:39:57;12.55;;;8.32;;
5981;SDS011;3018;48.730;9.336;2024-01-15T07:42:23;13.93;;;7.13;;
5981;SDS011;3018;48.730;9.336;2024-01-15T07:44:49;14.20;;;7.60;;
5981;SDS011;3018;48.730;9.336;2024-01-15T07:47:16;13.15;;;7.45;;
5981;SDS011;3018;48.730;9.336;2024-01-15T07:49:44;13.13;;;7.70;;
5981;SDS011;3018;48.730;9.336;2024-01-15T07:52:10;12.60;;;8.00;;
5981;SDS011;3018;48.730;9.336;2024-01-15T07:54:38;14.30;;;7.50;;
5981;SDS011;3018;48.730;9.336;2024-01-15T07:57:04;15.05;;;7.93;;
5981;SDS011;3018;48.730;9.336;2024-01-15T07:59:30;19.15;;;8.50;;
5981;SDS011;3018;48.730;9.336;2024-01-15T08:01:58;12.40;;;7.55;;
5981;SDS011;3018;48.730;9.336;2024-01-15T08:04:24;15.38;;;7.70;;
5981;SDS011;3018;48.730;9.336;2024-01-15T08:06:52;11.27;;;7.05;;
5981;SDS011;3018;48.730;9.336;2024-01-15T08:09:18;10.13;;;7.35;;
5981;SDS011;3018;48.730;9.336;2024-01-15T08:11:45;11.93;;;7.70;;
5981;SDS011;3018;48.730;9.336;2024-01-15T08:14:11;12.13;;;7.47;;
5981;SDS011;3018;48.730;9.336;2024-01-15T08:16:38;12.50;;;7.88;;
5981;SDS011;3018;48.730;9.336;2024-01-15T08:19:05;13.30;;;7.18;;
5981;SDS011;3018;48.730;9.336;2024-01-15T08:21:31;13.43;;;8.25;;
5981;SDS011;3018;48.730;9.336;2024-01-15T08:23:59;13.77;;;7.47;;
5981;SDS011;3018;48.730;9.336;2024-01-15T08:26:25;13.35;;;7.40;;
5981;SDS011;3018;48.730;9.336;2024-01-15T08:28:52;13.93;;;7.30;;
5981;SDS011;3018;48.730;9.336;2024-01-15T08:31:18;12.82;;;6.70;;
5981;SDS011;3018;48.730;9.336;2024-01-15T08:33:44;11.35;;;7.53;;
5981;SDS011;3018;48.730;9.336;2024-01-15T08:36:11;11.55;;;6.63;;
5981;SDS011;3018;48.730;9.336;2024-01-15T08:38:37;10.88;;;6.38;;
5981;SDS011;3018;48.730;9.336;2024-01-15T08:41:04;10.40;;;7.15;;
5981;SDS011;3018;48.730;9.336;2024-01-15T08:43:31;12.38;;;6.57;;
5981;SDS011;3018;48.730;9.336;2024-01-15T08:45:57;13.90;;;7.43;;
5981;SDS011;3018;48.730;9.336;2024-01-15T08:48:24;11.90;;;7.45;;
5981;SDS011;3018;48.730;9.336;2024-01-15T08:50:52;8.48;;;6.00;;
5981;SDS011;3018;48.730;9.336;2024-01-15T08:53:18;12.82;;;7.00;;
5981;SDS011;3018;48.730;9.336;2024-01-15T08:55:44;14.88;;;7.15;;
5981;SDS011;3018;48.730;9.336;2024-01-15T08:58:12;12.25;;;6.80;;
5981;SDS011;3018;48.730;9.336;2024-01-15T09:00:38;10.27;;;6.50;;
5981;SDS011;3018;48.730;9.336;2024-01-15T09:03:05;10.77;;;6.30;;
5981;SDS011;3018;48.730;9.336;2024-01-15T09:05:31;13.02;;;6.45;;
5981;SDS011;3018;48.730;9.336;2024-01-15T09:07:57;11.13;;;6.20;;
5981;SDS011;3018;48.730;9.336;2024-01-15T09:10:24;10.13;;;5.78;;
5981;SDS011;3018;48.730;9.336;2024-01-15T09:12:50;9.38;;;6.22;;
5981;SDS011;3018;48.730;9.336;2024-01-15T09:15:17;10.30;;;6.45;;
5981;SDS011;3018;48.730;9.336;2024-01-15T09:17:45;9.45;;;5.75;;
5981;SDS011;3018;48.730;9.336;2024-01-15T09:20:11;10.40;;;4.93;;
5981;SDS011;3018;48.730;9.336;2024-01-15T09:22:37;9.38;;;5.70;;
5981;SDS011;3018;48.730;9.336;2024-01-15T09:25:05;13.20;;;5.78;;
5981;SDS011;3018;48.730;9.336;2024-01-15T09:27:32;9.27;;;5.45;;
5981;SDS011;3018;48.730;9.336;2024-01-15T09:29:59;10.05;;;5.45;;
5981;SDS011;3018;48.730;9.336;2024-01-15T09:32:26;9.40;;;4.88;;
5981;SDS011;3018;48.730;9.336;2024-01-15T09:34:53;10.45;;;5.72;;
5981;SDS011;3018;48.730;9.336;2024-01-15T09:37:19;9.30;;;5.25;;
5981;SDS011;3018;48.730;9.336;2024-01-15T09:39:45;9.05;;;5.47;;
5981;SDS011;3018;48.730;9.336;2024-01-15T09:42:13;11.57;;;5.43;;
5981;SDS011;3018;48.730;9.336;2024-01-15T09:44:40;9.57;;;4.57;;
5981;SDS011;3018;48.730;9.336;2024-01-15T09:47:06;9.13;;;4.43;;
5981;SDS011;3018;48.730;9.336;2024-01-15T09:49:34;7.75;;;4.18;;
5981;SDS011;3018;48.730;9.336;2024-01-15T09:52:00;9.93;;;4.63;;
5981;SDS011;3018;48.730;9.336;2024-01-15T09:54:27;9.52;;;4.65;;
5981;SDS011;3018;48.730;9.336;2024-01-15T09:56:53;9.57;;;4.85;;
5981;SDS011;3018;48.730;9.336;2024-01-15T09:59:20;9.27;;;5.18;;
5981;SDS011;3018;48.730;9.336;2024-01-15T10:01:48;5.70;;;3.97;;
5981;SDS011;3018;48.730;9.336;2024-01-15T10:04:17;11.80;;;4.75;;
5981;SDS011;3018;48.730;9.336;2024-01-15T10:06:44;9.73;;;4.57;;
5981;SDS011;3018;48.730;9.336;2024-01-15T10:09:11;9.40;;;5.13;;
5981;SDS011;3018;48.730;9.336;2024-01-15T10:11:39;10.05;;;5.07;;
5981;SDS011;3018;48.730;9.336;2024-01-15T10:14:06;9.90;;;4.60;;
5981;SDS011;3018;48.730;9.336;2024-01-15T10:16:32;11.20;;;4.38;;
5981;SDS011;3018;48.730;9.336;2024-01-15T10:18:58;8.82;;;4.80;;
5981;SDS011;3018;48.730;9.336;2024-01-15T10:21:25;6.55;;;4.25;;
5981;SDS011;3018;48.730;9.336;2024-01-15T10:23:53;10.98;;;4.28;;
5981;SDS011;3018;48.730;9.336;2024-01-15T10:26:21;10.65;;;4.47;;
5981;SDS011;3018;48.730;9.336;2024-01-15T10:28:50;6.38;;;4.30;;
5981;SDS011;3018;48.730;9.336;2024-01-15T10:31:17;6.78;;;4.40;;
5981;SDS011;3018;48.730;9.336;2024-01-15T10:33:44;11.50;;;4.72;;
5981;SDS011;3018;48.730;9.336;2024-01-15T10:36:10;8.57;;;4.38;;
5981;SDS011;3018;48.730;9.336;2024-01-15T10:38:37;7.40;;;4.10;;
5981;SDS011;3018;48.730;9.336;2024-01-15T10:41:04;10.65;;;4.65;;
5981;SDS011;3018;48.730;9.336;2024-01-15T10:43:31;7.60;;;4.53;;
5981;SDS011;3018;48.730;9.336;2024-01-15T10:45:57;9.77;;;4.93;;
5981;SDS011;3018;48.730;9.336;2024-01-15T10:48:23;8.70;;;4.30;;
5981;SDS011;3018;48.730;9.336;2024-01-15T10:50:51;6.72;;;4.38;;
5981;SDS011;3018;48.730;9.336;2024-01-15T10:53:17;4.78;;;4.20;;
5981;SDS011;3018;48.730;9.336;2024-01-15T10:55:44;7.47;;;4.47;;
5981;SDS011;3018;48.730;9.336;2024-01-15T10:58:14;9.35;;;4.30;;
5981;SDS011;3018;48.730;9.336;2024-01-15T11:00:41;8.13;;;3.92;;
5981;SDS011;3018;48.730;9.336;2024-01-15T11:03:07;11.38;;;4.65;;
5981;SDS011;3018;48.730;9.336;2024-01-15T11:05:34;9.68;;;4.35;;
5981;SDS011;3018;48.730;9.336;2024-01-15T11:08:00;6.63;;;4.20;;
5981;SDS011;3018;48.730;9.336;2024-01-15T11:10:39;6.55;;;4.72;;
5981;SDS011;3018;48.730;9.336;2024-01-15T11:13:08;10.43;;;4.03;;
5981;SDS011;3018;48.730;9.336;2024-01-15T11:15:48;8.15;;;4.50;;
5981;SDS011;3018;48.730;9.336;2024-01-15T11:18:20;8.65;;;4.90;;
5981;SDS011;3018;48.730;9.336;2024-01-15T11:23:41;7.28;;;4.35;;
5981;SDS011;3018;48.730;9.336;2024-01-15T11:26:09;5.05;;;3.95;;
5981;SDS011;3018;48.730;9.336;2024-01-15T11:28:52;11.07;;;4.25;;
5981;SDS011;3018;48.730;9.336;2024-01-15T11:31:20;9.20;;;4.57;;
5981;SDS011;3018;48.730;9.336;2024-01-15T11:33:47;7.93;;;4.38;;
5981;SDS011;3018;48.730;9.336;2024-01-15T11:36:14;6.32;;;4.45;;
5981;SDS011;3018;48.730;9.336;2024-01-15T11:38:40;10.10;;;5.00;;
5981;SDS011;3018;48.730;9.336;2024-01-15T11:41:12;10.52;;;5.28;;
5981;SDS011;3018;48.730;9.336;2024-01-15T11:43:39;8.77;;;4.30;;
5981;SDS011;3018;48.730;9.336;2024-01-15T11:46:05;7.22;;;4.55;;
5981;SDS011;3018;48.730;9.336;2024-01-15T11:48:41;5.75;;;4.57;;
5981;SDS011;3018;48.730;9.336;2024-01-15T11:51:08;10.15;;;4.72;;
5981;SDS011;3018;48.730;9.336;2024-01-15T11:53:37;7.63;;;4.10;;
5981;SDS011;3018;48.730;9.336;2024-01-15T11:56:11;6.40;;;4.20;;
5981;SDS011;3018;48.730;9.336;2024-01-15T11:58:38;6.05;;;3.72;;
5981;SDS011;3018;48.730;9.336;2024-01-15T12:01:04;7.32;;;3.80;;
5981;SDS011;3018;48.730;9.336;2024-01-15T12:03:31;5.25;;;4.10;;
5981;SDS011;3018;48.730;9.336;2024-01-15T12:05:59;5.18;;;4.35;;
5981;SDS011;3018;48.730;9.336;2024-01-15T12:08:26;4.13;;;3.72;;
5981;SDS011;3018;48.730;9.336;2024-01-15T12:10:52;9.05;;;4.20;;
5981;SDS011;3018;48.730;9.336;2024-01-15T12:13:19;7.15;;;4.68;;
5981;SDS011;3018;48.730;9.336;2024-01-15T12:15:46;4.18;;;3.78;;
5981;SDS011;3018;48.730;9.336;2024-01-15T12:18:14;6.95;;;4.40;;
5981;SDS011;3018;48.730;9.336;2024-01-15T12:20:40;6.53;;;4.03;;
5981;SDS011;3018;48.730;9.336;2024-01-15T12:23:09;5.47;;;4.28;;
5981;SDS011;3018;48.730;9.336;2024-01-15T12:25:36;6.93;;;4.13;;
5981;SDS011;3018;48.730;9.336;2024-01-15T12:28:03;7.35;;;4.60;;
5981;SDS011;3018;48.730;9.336;2024-01-15T12:30:30;7.90;;;4.90;;
5981;SDS011;3018;48.730;9.336;2024-01-15T12:32:57;6.55;;;4.60;;
5981;SDS011;3018;48.730;9.336;2024-01-15T12:35:24;8.32;;;5.00;;
5981;SDS011;3018;48.730;9.336;2024-01-15T12:37:51;6.82;;;5.35;;
5981;SDS011;3018;48.730;9.336;2024-01-15T12:40:19;5.85;;;4.30;;
5981;SDS011;3018;48.730;9.336;2024-01-15T12:42:46;7.90;;;5.15;;
5981;SDS011;3018;48.730;9.336;2024-01-15T12:45:12;8.27;;;5.07;;
5981;SDS011;3018;48.730;9.336;2024-01-15T12:47:38;9.27;;;6.05;;
5981;SDS011;3018;48.730;9.336;2024-01-15T12:50:06;10.00;;;5.95;;
5981;SDS011;3018;48.730;9.336;2024-01-15T12:52:32;7.07;;;5.47;;
5981;SDS011;3018;48.730;9.336;2024-01-15T12:54:58;9.65;;;5.97;;
5981;SDS011;3018;48.730;9.336;2024-01-15T12:57:26;7.82;;;5.72;;
5981;SDS011;3018;48.730;9.336;2024-01-15T12:59:54;11.02;;;6.32;;
5981;SDS011;3018;48.730;9.336;2024-01-15T13:02:20;7.63;;;5.63;;
5981;SDS011;3018;48.730;9.336;2024-01-15T13:04:46;8.85;;;6.53;;
5981;SDS011;3018;48.730;9.336;2024-01-15T13:07:12;9.32;;;5.85;;
5981;SDS011;3018;48.730;9.336;2024-01-15T13:09:40;8.15;;;5.93;;
5981;SDS011;3018;48.730;9.336;2024-01-15T13:12:06;10.95;;;6.13;;
5981;SDS011;3018;48.730;9.336;2024-01-15T13:14:34;10.77;;;6.28;;
5981;SDS011;3018;48.730;9.336;2024-01-15T13:17:01;9.40;;;5.57;;
5981;SDS011;3018;48.730;9.336;2024-01-15T13:19:28;11.98;;;6.63;;
5981;SDS011;3018;48.730;9.336;2024-01-15T13:21:55;8.88;;;5.93;;
5981;SDS011;3018;48.730;9.336;2024-01-15T13:24:23;10.30;;;6.50;;
5981;SDS011;3018;48.730;9.336;2024-01-15T13:26:49;9.18;;;6.13;;
5981;SDS011;3018;48.730;9.336;2024-01-15T13:29:16;12.43;;;6.50;;
5981;SDS011;3018;48.730;9.336;2024-01-15T13:31:43;9.00;;;6.20;;
5981;SDS011;3018;48.730;9.336;2024-01-15T13:34:11;8.32;;;6.88;;
5981;SDS011;3018;48.730;9.336;2024-01-15T13:36:37;9.73;;;6.22;;
5981;SDS011;3018;48.730;9.336;2024-01-15T13:39:04;10.55;;;7.05;;
5981;SDS011;3018;48.730;9.336;2024-01-15T13:41:33;10.18;;;6.40;;
5981;SDS011;3018;48.730;9.336;2024-01-15T13:43:59;9.57;;;6.40;;
5981;SDS011;3018;48.730;9.336;2024-01-15T13:46:26;11.20;;;5.95;;
5981;SDS011;3018;48.730;9.336;2024-01-15T13:48:53;10.90;;;5.60;;
5981;SDS011;3018;48.730;9.336;2024-01-15T13:51:21;7.60;;;5.80;;
5981;SDS011;3018;48.730;9.336;2024-01-15T13:53:48;8.70;;;5.78;;
5981;SDS011;3018;48.730;9.336;2024-01-15T13:56:14;8.52;;;5.68;;
5981;SDS011;3018;48.730;9.336;2024-01-15T13:58:41;6.82;;;5.50;;
5981;SDS011;3018;48.730;9.336;2024-01-15T14:01:07;7.88;;;4.88;;
5981;SDS011;3018;48.730;9.336;2024-01-15T14:03:34;8.30;;;4.93;;
5981;SDS011;3018;48.730;9.336;2024-01-15T14:06:01;10.50;;;5.15;;
5981;SDS011;3018;48.730;9.336;2024-01-15T14:08:29;9.73;;;5.00;;
5981;SDS011;3018;48.730;9.336;2024-01-15T14:10:55;9.05;;;5.22;;
5981;SDS011;3018;48.730;9.336;2024-01-15T14:13:22;6.15;;;4.55;;
5981;SDS011;3018;48.730;9.336;2024-01-15T14:15:49;6.90;;;4.13;;
5981;SDS011;3018;48.730;9.336;2024-01-15T14:18:15;6.60;;;4.82;;
5981;SDS011;3018;48.730;9.336;2024-01-15T14:20:42;5.88;;;5.22;;
5981;SDS011;3018;48.730;9.336;2024-01-15T14:23:10;10.25;;;5.38;;
5981;SDS011;3018;48.730;9.336;2024-01-15T14:25:36;10.88;;;5.68;;
5981;SDS011;3018;48.730;9.336;2024-01-15T14:28:02;11.20;;;5.13;;
5981;SDS011;3018;48.730;9.336;2024-01-15T14:30:28;9.18;;;5.28;;
5981;SDS011;3018;48.730;9.336;2024-01-15T14:32:55;6.82;;;5.00;;
5981;SDS011;3018;48.730;9.336;2024-01-15T14:35:21;8.13;;;4.45;;
5981;SDS011;3018;48.730;9.336;2024-01-15T14:37:47;5.05;;;4.63;;
5981;SDS011;3018;48.730;9.336;2024-01-15T14:40:15;14.48;;;5.15;;
5981;SDS011;3018;48.730;9.336;2024-01-15T14:42:41;5.20;;;4.68;;
5981;SDS011;3018;48.730;9.336;2024-01-15T14:45:08;5.47;;;4.05;;
5981;SDS011;3018;48.730;9.336;2024-01-15T14:47:36;6.75;;;4.90;;
5981;SDS011;3018;48.730;9.336;2024-01-15T14:50:03;5.03;;;3.63;;
5981;SDS011;3018;48.730;9.336;2024-01-15T14:52:30;4.32;;;3.83;;
5981;SDS011;3018;48.730;9.336;2024-01-15T14:54:56;5.07;;;3.97;;
5981;SDS011;3018;48.730;9.336;2024-01-15T14:57:24;4.50;;;4.10;;
5981;SDS011;3018;48.730;9.336;2024-01-15T14:59:50;5.40;;;4.10;;
5981;SDS011;3018;48.730;9.336;2024-01-15T15:02:16;4.13;;;3.83;;